sensor_id;sensor_type;location;lat;lon;timestamp;noise_LAeq;noise_LA_min;noise_LA_max;noise_LA01;noise_LA95
67324;Laerm;57667;51.438;5.968;2022-10-31T00:00:07;36.69;33.98;45.56;;
67324;Laerm;57667;51.438;5.968;2022-10-31T00:00:18;35.82;33.87;40.16;;
67324;Laerm;57667;51.438;5.968;2022-10-31T00:00:28;35.77;32.73;38.37;;
67324;Laerm;57667;51.438;5.968;2022-10-31T00:00:39;35.81;33.31;39.32;;
67324;Laerm;57667;51.438;5.968;2022-10-31T00:00:50;35.76;33.72;42.21;;
67324;Laerm;57667;51.438;5.968;2022-10-31T00:01:00;35.24;33.25;45.73;;
67324;Laerm;57667;51.438;5.968;2022-10-31T00:01:15;35.57;33.46;38.59;;
67324;Laerm;57667;51.438;5.968;2022-10-31T00:01:27;35.74;33.05;43.26;;
67324;Laerm;57667;51.438;5.968;2022-10-31T00:01:38;35.61;33.88;37.71;;
67324;Laerm;57667;51.438;5.968;2022-10-31T00:01:49;36.56;33.35;42.85;;
67324;Laerm;57667;51.438;5.968;2022-10-31T00:01:59;36.21;33.46;39.15;;
67324;Laerm;57667;51.438;5.968;2022-10-31T00:02:10;35.36;33.45;38.39;;
67324;Laerm;57667;51.438;5.968;2022-10-31T00:02:20;36.58;33.76;54.21;;
67324;Laerm;57667;51.438;5.968;2022-10-31T00:02:30;35.53;32.82;40.72;;
67324;Laerm;57667;51.438;5.968;2022-10-31T00:02:40;36.86;34.27;42.03;;
67324;Laerm;57667;51.438;5.968;2022-10-31T00:02:51;37.46;35.12;41.46;;
67324;Laerm;57667;51.438;5.968;2022-10-31T00:03:01;37.40;35.08;39.41;;
67324;Laerm;57667;51.438;5.968;2022-10-31T00:03:11;37.78;34.73;39.90;;
67324;Laerm;57667;51.438;5.968;2022-10-31T00:03:22;37.95;35.57;40.45;;
67324;Laerm;57667;51.438;5.968;2022-10-31T00:03:32;37.77;31.50;47.90;;
67324;Laerm;57667;51.438;5.968;2022-10-31T00:03:43;37.31;35.14;43.68;;
67324;Laerm;57667;51.438;5.968;2022-10-31T00:03:53;37.11;34.43;42.44;;
67324;Laerm;57667;51.438;5.968;2022-10-31T00:04:03;37.60;34.70;40.19;;
67324;Laerm;57667;51.438;5.968;2022-10-31T00:04:14;37.63;35.60;40.02;;
67324;Laerm;57667;51.438;5.968;2022-10-31T00:04:24;37.71;35.21;39.82;;
67324;Laerm;57667;51.438;5.968;2022-10-31T00:04:34;38.10;36.28;41.45;;
67324;Laerm;57667;51.438;5.968;2022-10-31T00:04:45;38.14;35.83;41.80;;
67324;Laerm;57667;51.438;5.968;2022-10-31T00:04:55;38.93;36.28;53.45;;
67324;Laerm;57667;51.438;5.968;2022-10-31T00:05:05;38.39;35.44;52.47;;
67324;Laerm;57667;51.438;5.968;2022-10-31T00:05:16;37.51;34.89;41.30;;
67324;Laerm;57667;51.438;5.968;2022-10-31T00:05:29;37.11;34.28;44.83;;
67324;Laerm;57667;51.438;5.968;2022-10-31T00:05:46;36.95;34.14;39.66;;
67324;Laerm;57667;51.438;5.968;2022-10-31T00:05:57;36.98;34.18;39.37;;
67324;Laerm;57667;51.438;5.968;2022-10-31T00:06:07;37.43;35.08;40.40;;
67324;Laerm;57667;51.438;5.968;2022-10-31T00:06:17;37.19;35.27;39.61;;
67324;Laerm;57667;51.438;5.968;2022-10-31T00:06:28;38.04;35.30;41.01;;
67324;Laerm;57667;51.438;5.968;2022-10-31T00:06:38;37.14;34.98;42.21;;
67324;Laerm;57667;51.438;5.968;2022-10-31T00:06:49;37.48;35.58;40.94;;
67324;Laerm;57667;51.438;5.968;2022-10-31T00:06:59;37.01;35.17;39.87;;
67324;Laerm;57667;51.438;5.968;2022-10-31T00:07:09;37.39;34.93;43.77;;
67324;Laerm;57667;51.438;5.968;2022-10-31T00:07:19;37.41;35.33;45.06;;
67324;Laerm;57667;51.438;5.968;2022-10-31T00:07:30;38.09;34.34;51.73;;
67324;Laerm;57667;51.438;5.968;2022-10-31T00:07:40;38.45;35.21;49.37;;
67324;Laerm;57667;51.438;5.968;2022-10-31T00:07:53;38.23;34.32;44.58;;
67324;Laerm;57667;51.438;5.968;2022-10-31T00:08:06;37.03;34.14;44.57;;
67324;Laerm;57667;51.438;5.968;2022-10-31T00:08:17;36.94;34.02;41.15;;
67324;Laerm;57667;51.438;5.968;2022-10-31T00:08:27;36.87;34.96;40.39;;
67324;Laerm;57667;51.438;5.968;2022-10-31T00:08:37;36.93;34.68;47.79;;
67324;Laerm;57667;51.438;5.968;2022-10-31T00:08:54;36.77;34.48;38.76;;
67324;Laerm;57667;51.438;5.968;2022-10-31T00:09:05;37.09;34.97;41.37;;
67324;Laerm;57667;51.438;5.968;2022-10-31T00:09:15;36.92;34.97;40.85;;
67324;Laerm;57667;51.438;5.968;2022-10-31T00:09:25;37.28;35.07;42.67;;
67324;Laerm;57667;51.438;5.968;2022-10-31T00:09:36;37.29;34.70;39.95;;
67324;Laerm;57667;51.438;5.968;2022-10-31T00:09:46;37.44;34.97;43.21;;
67324;Laerm;57667;51.438;5.968;2022-10-31T00:09:56;36.77;34.53;39.69;;
67324;Laerm;57667;51.438;5.968;2022-10-31T00:10:07;37.58;35.24;40.19;;
67324;Laerm;57667;51.438;5.968;2022-10-31T00:10:17;37.64;35.18;43.85;;
67324;Laerm;57667;51.438;5.968;2022-10-31T00:10:28;37.36;35.69;39.22;;
67324;Laerm;57667;51.438;5.968;2022-10-31T00:10:38;37.89;35.19;45.89;;
67324;Laerm;57667;51.438;5.968;2022-10-31T00:10:49;37.67;35.09;41.21;;
67324;Laerm;57667;51.438;5.968;2022-10-31T00:10:59;37.04;34.51;41.81;;
67324;Laerm;57667;51.438;5.968;2022-10-31T00:11:09;36.81;34.50;39.00;;
67324;Laerm;57667;51.438;5.968;2022-10-31T00:11:20;37.10;34.66;42.68;;
67324;Laerm;57667;51.438;5.968;2022-10-31T00:11:31;36.74;34.49;38.91;;
67324;Laerm;57667;51.438;5.968;2022-10-31T00:11:41;36.57;34.59;42.08;;
67324;Laerm;57667;51.438;5.968;2022-10-31T00:11:51;38.91;32.89;43.75;;
67324;Laerm;57667;51.438;5.968;2022-10-31T00:12:02;35.85;34.39;38.55;;
67324;Laerm;57667;51.438;5.968;2022-10-31T00:12:12;34.44;31.57;37.29;;
67324;Laerm;57667;51.438;5.968;2022-10-31T00:12:22;32.55;30.37;37.20;;
67324;Laerm;57667;51.438;5.968;2022-10-31T00:12:33;33.12;30.91;42.06;;
67324;Laerm;57667;51.438;5.968;2022-10-31T00:12:43;33.24;30.20;41.20;;
67324;Laerm;57667;51.438;5.968;2022-10-31T00:12:53;35.45;30.74;40.57;;
67324;Laerm;57667;51.438;5.968;2022-10-31T00:13:04;39.65;34.72;43.43;;
67324;Laerm;57667;51.438;5.968;2022-10-31T00:13:14;43.87;39.76;48.24;;
67324;Laerm;57667;51.438;5.968;2022-10-31T00:13:25;40.85;33.46;46.60;;
67324;Laerm;57667;51.438;5.968;2022-10-31T00:13:35;34.80;32.60;37.58;;
67324;Laerm;57667;51.438;5.968;2022-10-31T00:13:46;35.56;32.46;39.60;;
67324;Laerm;57667;51.438;5.968;2022-10-31T00:13:56;37.21;33.55;42.52;;
67324;Laerm;57667;51.438;5.968;2022-10-31T00:14:07;40.17;34.54;44.80;;
67324;Laerm;57667;51.438;5.968;2022-10-31T00:14:17;35.35;32.75;38.96;;
67324;Laerm;57667;51.438;5.968;2022-10-31T00:14:27;35.26;32.75;37.88;;
67324;Laerm;57667;51.438;5.968;2022-10-31T00:14:38;35.70;32.82;43.18;;
67324;Laerm;57667;51.438;5.968;2022-10-31T00:14:48;35.24;32.41;38.35;;
67324;Laerm;57667;51.438;5.968;2022-10-31T00:14:58;36.16;31.64;44.33;;
67324;Laerm;57667;51.438;5.968;2022-10-31T00:15:09;32.58;30.58;37.93;;
67324;Laerm;57667;51.438;5.968;2022-10-31T00:15:19;38.92;31.85;46.28;;
67324;Laerm;57667;51.438;5.968;2022-10-31T00:15:29;46.75;39.83;53.06;;
67324;Laerm;57667;51.438;5.968;2022-10-31T00:15:40;42.43;37.35;45.30;;
67324;Laerm;57667;51.438;5.968;2022-10-31T00:15:50;35.40;32.18;38.94;;
67324;Laerm;57667;51.438;5.968;2022-10-31T00:16:01;32.53;30.75;35.30;;
67324;Laerm;57667;51.438;5.968;2022-10-31T00:16:18;31.72;30.32;33.44;;
67324;Laerm;57667;51.438;5.968;2022-10-31T00:16:29;31.86;30.12;33.80;;
67324;Laerm;57667;51.438;5.968;2022-10-31T00:16:39;32.63;30.74;35.94;;
67324;Laerm;57667;51.438;5.968;2022-10-31T00:16:51;32.76;30.79;35.51;;
67324;Laerm;57667;51.438;5.968;2022-10-31T00:17:04;32.15;30.28;34.43;;
67324;Laerm;57667;51.438;5.968;2022-10-31T00:17:14;31.99;30.45;35.09;;
67324;Laerm;57667;51.438;5.968;2022-10-31T00:17:25;32.34;30.75;34.03;;
67324;Laerm;57667;51.438;5.968;2022-10-31T00:17:35;33.19;31.40;34.72;;
67324;Laerm;57667;51.438;5.968;2022-10-31T00:17:46;32.87;30.88;34.79;;
67324;Laerm;57667;51.438;5.968;2022-10-31T00:17:58;32.95;30.88;35.18;;
67324;Laerm;57667;51.438;5.968;2022-10-31T00:18:08;32.41;30.66;34.51;;
67324;Laerm;57667;51.438;5.968;2022-10-31T00:18:19;31.83;29.87;33.44;;
67324;Laerm;57667;51.438;5.968;2022-10-31T00:18:29;31.86;30.05;33.71;;
67324;Laerm;57667;51.438;5.968;2022-10-31T00:18:40;31.99;30.68;34.53;;
67324;Laerm;57667;51.438;5.968;2022-10-31T00:18:51;31.82;30.19;33.07;;
67324;Laerm;57667;51.438;5.968;2022-10-31T00:19:02;31.79;29.87;33.65;;
67324;Laerm;57667;51.438;5.968;2022-10-31T00:19:13;31.88;30.49;37.67;;
67324;Laerm;57667;51.438;5.968;2022-10-31T00:19:23;32.10;30.39;33.89;;
67324;Laerm;57667;51.438;5.968;2022-10-31T00:19:34;32.32;30.56;33.99;;
67324;Laerm;57667;51.438;5.968;2022-10-31T00:19:44;32.53;30.38;35.89;;
67324;Laerm;57667;51.438;5.968;2022-10-31T00:19:54;32.69;30.80;35.37;;
67324;Laerm;57667;51.438;5.968;2022-10-31T00:20:05;32.96;31.20;36.56;;
67324;Laerm;57667;51.438;5.968;2022-10-31T00:20:15;33.18;30.91;37.64;;
67324;Laerm;57667;51.438;5.968;2022-10-31T00:20:26;32.85;31.12;34.76;;
67324;Laerm;57667;51.438;5.968;2022-10-31T00:20:36;32.89;31.14;34.52;;
67324;Laerm;57667;51.438;5.968;2022-10-31T00:20:46;32.48;30.89;34.03;;
67324;Laerm;57667;51.438;5.968;2022-10-31T00:21:00;32.52;30.72;44.60;;
67324;Laerm;57667;51.438;5.968;2022-10-31T00:21:11;32.44;30.79;34.14;;
67324;Laerm;57667;51.438;5.968;2022-10-31T00:21:21;32.84;30.95;34.67;;
67324;Laerm;57667;51.438;5.968;2022-10-31T00:21:32;33.11;31.37;35.70;;
67324;Laerm;57667;51.438;5.968;2022-10-31T00:21:43;33.25;31.01;35.63;;
67324;Laerm;57667;51.438;5.968;2022-10-31T00:21:53;33.80;31.14;35.81;;
67324;Laerm;57667;51.438;5.968;2022-10-31T00:22:03;32.98;30.58;34.97;;
67324;Laerm;57667;51.438;5.968;2022-10-31T00:22:14;32.87;30.72;35.17;;
67324;Laerm;57667;51.438;5.968;2022-10-31T00:22:24;32.62;30.98;34.35;;
67324;Laerm;57667;51.438;5.968;2022-10-31T00:22:35;32.53;30.44;34.11;;
67324;Laerm;57667;51.438;5.968;2022-10-31T00:22:45;33.02;31.10;34.77;;
67324;Laerm;57667;51.438;5.968;2022-10-31T00:23:01;35.00;31.10;37.87;;
67324;Laerm;57667;51.438;5.968;2022-10-31T00:23:12;38.12;32.19;41.78;;
67324;Laerm;57667;51.438;5.968;2022-10-31T00:23:22;39.20;32.28;42.62;;
67324;Laerm;57667;51.438;5.968;2022-10-31T00:23:32;35.52;30.72;42.29;;
67324;Laerm;57667;51.438;5.968;2022-10-31T00:23:43;33.25;30.58;35.95;;
67324;Laerm;57667;51.438;5.968;2022-10-31T00:23:53;34.78;31.72;37.29;;
67324;Laerm;57667;51.438;5.968;2022-10-31T00:24:03;37.03;32.34;40.42;;
67324;Laerm;57667;51.438;5.968;2022-10-31T00:24:14;35.41;32.05;38.67;;
67324;Laerm;57667;51.438;5.968;2022-10-31T00:24:24;38.00;34.89;39.97;;
67324;Laerm;57667;51.438;5.968;2022-10-31T00:24:35;35.64;31.07;39.62;;
67324;Laerm;57667;51.438;5.968;2022-10-31T00:24:45;33.34;30.50;35.81;;
67324;Laerm;57667;51.438;5.968;2022-10-31T00:24:55;33.55;30.36;36.77;;
67324;Laerm;57667;51.438;5.968;2022-10-31T00:25:06;35.44;30.68;38.60;;
67324;Laerm;57667;51.438;5.968;2022-10-31T00:25:16;32.86;30.48;39.33;;
67324;Laerm;57667;51.438;5.968;2022-10-31T00:25:27;36.23;30.80;47.40;;
67324;Laerm;57667;51.438;5.968;2022-10-31T00:25:38;36.16;30.76;46.57;;
67324;Laerm;57667;51.438;5.968;2022-10-31T00:25:49;34.61;30.71;47.60;;
67324;Laerm;57667;51.438;5.968;2022-10-31T00:26:00;33.51;30.57;40.65;;
67324;Laerm;57667;51.438;5.968;2022-10-31T00:26:10;37.77;30.58;47.60;;
67324;Laerm;57667;51.438;5.968;2022-10-31T00:26:21;36.51;30.92;47.83;;
67324;Laerm;57667;51.438;5.968;2022-10-31T00:26:31;33.61;30.15;39.38;;
67324;Laerm;57667;51.438;5.968;2022-10-31T00:26:41;32.42;30.60;33.90;;
67324;Laerm;57667;51.438;5.968;2022-10-31T00:26:52;32.62;31.16;34.04;;
67324;Laerm;57667;51.438;5.968;2022-10-31T00:27:02;32.88;31.19;34.38;;
67324;Laerm;57667;51.438;5.968;2022-10-31T00:27:12;32.91;31.33;34.53;;
67324;Laerm;57667;51.438;5.968;2022-10-31T00:27:23;33.06;31.27;34.78;;
67324;Laerm;57667;51.438;5.968;2022-10-31T00:27:33;33.01;31.05;34.81;;
67324;Laerm;57667;51.438;5.968;2022-10-31T00:27:43;32.19;30.38;34.01;;
67324;Laerm;57667;51.438;5.968;2022-10-31T00:27:53;32.42;30.82;34.04;;
67324;Laerm;57667;51.438;5.968;2022-10-31T00:28:05;32.34;30.61;34.10;;
67324;Laerm;57667;51.438;5.968;2022-10-31T00:28:15;32.88;30.76;34.72;;
67324;Laerm;57667;51.438;5.968;2022-10-31T00:28:26;32.70;30.47;34.71;;
67324;Laerm;57667;51.438;5.968;2022-10-31T00:28:36;32.72;30.87;34.42;;
67324;Laerm;57667;51.438;5.968;2022-10-31T00:28:46;32.46;30.59;34.37;;
67324;Laerm;57667;51.438;5.968;2022-10-31T00:28:57;32.11;30.27;33.99;;
67324;Laerm;57667;51.438;5.968;2022-10-31T00:29:08;32.65;30.62;34.27;;
67324;Laerm;57667;51.438;5.968;2022-10-31T00:29:18;32.68;30.66;38.14;;
67324;Laerm;57667;51.438;5.968;2022-10-31T00:29:28;32.33;30.60;34.43;;
67324;Laerm;57667;51.438;5.968;2022-10-31T00:29:39;32.50;30.59;34.35;;
67324;Laerm;57667;51.438;5.968;2022-10-31T00:29:49;32.54;30.29;35.56;;
67324;Laerm;57667;51.438;5.968;2022-10-31T00:29:59;32.93;30.62;34.67;;
67324;Laerm;57667;51.438;5.968;2022-10-31T00:30:10;32.69;30.61;35.27;;
67324;Laerm;57667;51.438;5.968;2022-10-31T00:30:20;33.21;30.57;37.00;;
67324;Laerm;57667;51.438;5.968;2022-10-31T00:30:30;34.66;31.52;37.71;;
67324;Laerm;57667;51.438;5.968;2022-10-31T00:30:41;33.74;31.13;35.82;;
67324;Laerm;57667;51.438;5.968;2022-10-31T00:30:51;33.65;31.18;35.82;;
67324;Laerm;57667;51.438;5.968;2022-10-31T00:31:02;33.74;30.62;40.16;;
67324;Laerm;57667;51.438;5.968;2022-10-31T00:31:13;33.36;30.70;36.69;;
67324;Laerm;57667;51.438;5.968;2022-10-31T00:31:23;33.72;30.72;38.29;;
67324;Laerm;57667;51.438;5.968;2022-10-31T00:31:34;32.52;30.64;35.21;;
67324;Laerm;57667;51.438;5.968;2022-10-31T00:31:44;32.43;30.42;36.16;;
67324;Laerm;57667;51.438;5.968;2022-10-31T00:31:54;32.13;30.26;33.83;;
67324;Laerm;57667;51.438;5.968;2022-10-31T00:32:05;31.81;30.30;33.49;;
67324;Laerm;57667;51.438;5.968;2022-10-31T00:32:21;31.85;30.22;33.95;;
67324;Laerm;57667;51.438;5.968;2022-10-31T00:32:31;31.93;30.30;36.93;;
67324;Laerm;57667;51.438;5.968;2022-10-31T00:32:41;32.16;30.13;34.38;;
67324;Laerm;57667;51.438;5.968;2022-10-31T00:32:52;31.98;30.38;33.74;;
67324;Laerm;57667;51.438;5.968;2022-10-31T00:33:05;31.86;30.40;33.72;;
67324;Laerm;57667;51.438;5.968;2022-10-31T00:33:15;31.84;29.92;34.62;;
67324;Laerm;57667;51.438;5.968;2022-10-31T00:33:28;32.15;30.14;33.91;;
67324;Laerm;57667;51.438;5.968;2022-10-31T00:33:39;32.22;30.72;33.79;;
67324;Laerm;57667;51.438;5.968;2022-10-31T00:33:49;32.30;30.42;34.42;;
67324;Laerm;57667;51.438;5.968;2022-10-31T00:34:00;33.09;31.16;35.69;;
67324;Laerm;57667;51.438;5.968;2022-10-31T00:34:12;33.00;30.91;36.46;;
67324;Laerm;57667;51.438;5.968;2022-10-31T00:34:23;32.10;30.20;36.60;;
67324;Laerm;57667;51.438;5.968;2022-10-31T00:34:33;33.20;30.24;36.03;;
67324;Laerm;57667;51.438;5.968;2022-10-31T00:34:43;34.66;30.81;38.55;;
67324;Laerm;57667;51.438;5.968;2022-10-31T00:34:54;35.41;31.21;38.83;;
67324;Laerm;57667;51.438;5.968;2022-10-31T00:35:04;35.19;32.29;37.86;;
67324;Laerm;57667;51.438;5.968;2022-10-31T00:35:15;33.95;31.45;37.72;;
67324;Laerm;57667;51.438;5.968;2022-10-31T00:35:25;34.21;30.74;37.34;;
67324;Laerm;57667;51.438;5.968;2022-10-31T00:35:35;34.44;30.26;39.35;;
67324;Laerm;57667;51.438;5.968;2022-10-31T00:36:07;32.71;30.53;34.71;;
67324;Laerm;57667;51.438;5.968;2022-10-31T00:36:17;32.36;30.31;35.51;;
67324;Laerm;57667;51.438;5.968;2022-10-31T00:36:27;32.17;29.91;33.88;;
67324;Laerm;57667;51.438;5.968;2022-10-31T00:36:38;31.83;29.91;33.84;;
67324;Laerm;57667;51.438;5.968;2022-10-31T00:36:48;31.75;30.19;34.85;;
67324;Laerm;57667;51.438;5.968;2022-10-31T00:36:58;31.99;30.15;34.20;;
67324;Laerm;57667;51.438;5.968;2022-10-31T00:37:09;31.73;29.87;33.64;;
67324;Laerm;57667;51.438;5.968;2022-10-31T00:37:22;31.98;30.41;33.89;;
67324;Laerm;57667;51.438;5.968;2022-10-31T00:37:32;32.11;30.49;34.17;;
67324;Laerm;57667;51.438;5.968;2022-10-31T00:37:42;31.70;30.26;37.77;;
67324;Laerm;57667;51.438;5.968;2022-10-31T00:37:53;31.49;29.72;33.07;;
67324;Laerm;57667;51.438;5.968;2022-10-31T00:38:03;31.34;29.92;33.28;;
67324;Laerm;57667;51.438;5.968;2022-10-31T00:38:16;31.62;29.75;33.34;;
67324;Laerm;57667;51.438;5.968;2022-10-31T00:38:27;31.91;30.26;33.54;;
67324;Laerm;57667;51.438;5.968;2022-10-31T00:38:37;32.77;30.68;34.36;;
67324;Laerm;57667;51.438;5.968;2022-10-31T00:38:47;32.66;30.78;43.84;;
67324;Laerm;57667;51.438;5.968;2022-10-31T00:38:58;31.99;30.28;38.44;;
67324;Laerm;57667;51.438;5.968;2022-10-31T00:39:08;31.94;30.19;33.57;;
67324;Laerm;57667;51.438;5.968;2022-10-31T00:39:19;31.96;29.81;44.63;;
67324;Laerm;57667;51.438;5.968;2022-10-31T00:39:29;31.19;29.75;33.11;;
67324;Laerm;57667;51.438;5.968;2022-10-31T00:39:39;31.34;29.94;32.86;;
67324;Laerm;57667;51.438;5.968;2022-10-31T00:39:49;31.71;30.15;33.01;;
67324;Laerm;57667;51.438;5.968;2022-10-31T00:40:00;31.37;29.85;33.60;;
67324;Laerm;57667;51.438;5.968;2022-10-31T00:40:10;31.52;29.95;33.20;;
67324;Laerm;57667;51.438;5.968;2022-10-31T00:40:21;31.71;30.36;34.53;;
67324;Laerm;57667;51.438;5.968;2022-10-31T00:40:31;31.84;30.40;33.28;;
67324;Laerm;57667;51.438;5.968;2022-10-31T00:40:41;31.68;30.40;33.47;;
67324;Laerm;57667;51.438;5.968;2022-10-31T00:40:52;32.18;30.58;34.16;;
67324;Laerm;57667;51.438;5.968;2022-10-31T00:41:02;31.88;30.44;33.49;;
67324;Laerm;57667;51.438;5.968;2022-10-31T00:41:13;31.94;30.52;33.67;;
67324;Laerm;57667;51.438;5.968;2022-10-31T00:41:24;32.16;30.43;35.49;;
67324;Laerm;57667;51.438;5.968;2022-10-31T00:41:34;32.36;30.55;34.48;;
67324;Laerm;57667;51.438;5.968;2022-10-31T00:41:44;32.24;30.59;34.28;;
67324;Laerm;57667;51.438;5.968;2022-10-31T00:41:55;32.78;31.17;34.37;;
67324;Laerm;57667;51.438;5.968;2022-10-31T00:42:05;32.41;30.72;34.47;;
67324;Laerm;57667;51.438;5.968;2022-10-31T00:42:15;32.13;30.36;35.35;;
67324;Laerm;57667;51.438;5.968;2022-10-31T00:42:26;32.27;30.58;34.04;;
67324;Laerm;57667;51.438;5.968;2022-10-31T00:42:36;32.69;30.94;34.93;;
67324;Laerm;57667;51.438;5.968;2022-10-31T00:42:46;32.94;30.92;35.26;;
67324;Laerm;57667;51.438;5.968;2022-10-31T00:42:57;33.59;31.32;43.69;;
67324;Laerm;57667;51.438;5.968;2022-10-31T00:43:07;32.91;30.41;34.91;;
67324;Laerm;57667;51.438;5.968;2022-10-31T00:43:17;33.64;31.04;38.29;;
67324;Laerm;57667;51.438;5.968;2022-10-31T00:43:28;34.58;30.92;38.88;;
67324;Laerm;57667;51.438;5.968;2022-10-31T00:43:38;32.79;31.42;34.27;;
67324;Laerm;57667;51.438;5.968;2022-10-31T00:43:48;32.61;30.89;34.46;;
67324;Laerm;57667;51.438;5.968;2022-10-31T00:43:58;32.12;30.37;34.05;;
67324;Laerm;57667;51.438;5.968;2022-10-31T00:44:09;32.01;30.36;33.35;;
67324;Laerm;57667;51.438;5.968;2022-10-31T00:44:19;31.96;30.46;34.34;;
67324;Laerm;57667;51.438;5.968;2022-10-31T00:44:29;32.23;30.34;34.82;;
67324;Laerm;57667;51.438;5.968;2022-10-31T00:44:40;33.14;31.07;35.12;;
67324;Laerm;57667;51.438;5.968;2022-10-31T00:44:50;32.15;30.35;34.42;;
67324;Laerm;57667;51.438;5.968;2022-10-31T00:45:00;32.30;30.56;35.43;;
67324;Laerm;57667;51.438;5.968;2022-10-31T00:45:11;33.50;31.32;37.57;;
67324;Laerm;57667;51.438;5.968;2022-10-31T00:45:21;34.83;31.99;37.97;;
67324;Laerm;57667;51.438;5.968;2022-10-31T00:45:31;32.71;30.95;34.84;;
67324;Laerm;57667;51.438;5.968;2022-10-31T00:45:42;32.15;30.72;33.67;;
67324;Laerm;57667;51.438;5.968;2022-10-31T00:45:52;32.35;30.76;33.83;;
67324;Laerm;57667;51.438;5.968;2022-10-31T00:46:03;33.19;31.23;35.03;;
67324;Laerm;57667;51.438;5.968;2022-10-31T00:46:13;32.83;30.44;35.09;;
67324;Laerm;57667;51.438;5.968;2022-10-31T00:46:24;32.55;31.01;39.48;;
67324;Laerm;57667;51.438;5.968;2022-10-31T00:46:34;32.97;31.25;38.20;;
67324;Laerm;57667;51.438;5.968;2022-10-31T00:46:44;32.74;31.09;34.76;;
67324;Laerm;57667;51.438;5.968;2022-10-31T00:46:55;32.04;30.02;34.15;;
67324;Laerm;57667;51.438;5.968;2022-10-31T00:47:05;31.89;29.91;33.52;;
67324;Laerm;57667;51.438;5.968;2022-10-31T00:47:15;32.17;30.57;34.24;;
67324;Laerm;57667;51.438;5.968;2022-10-31T00:47:25;32.35;30.48;34.00;;
67324;Laerm;57667;51.438;5.968;2022-10-31T00:47:36;32.22;30.74;34.04;;
67324;Laerm;57667;51.438;5.968;2022-10-31T00:47:46;31.51;29.89;33.43;;
67324;Laerm;57667;51.438;5.968;2022-10-31T00:47:57;30.94;29.55;32.07;;
67324;Laerm;57667;51.438;5.968;2022-10-31T00:48:10;31.21;29.74;33.34;;
67324;Laerm;57667;51.438;5.968;2022-10-31T00:48:24;32.46;30.41;34.57;;
67324;Laerm;57667;51.438;5.968;2022-10-31T00:48:34;31.48;29.80;33.43;;
67324;Laerm;57667;51.438;5.968;2022-10-31T00:48:44;31.54;30.21;33.40;;
67324;Laerm;57667;51.438;5.968;2022-10-31T00:48:55;31.67;30.01;33.70;;
67324;Laerm;57667;51.438;5.968;2022-10-31T00:49:05;31.69;29.94;36.22;;
67324;Laerm;57667;51.438;5.968;2022-10-31T00:49:18;31.61;29.96;33.19;;
67324;Laerm;57667;51.438;5.968;2022-10-31T00:49:28;32.06;29.73;34.05;;
67324;Laerm;57667;51.438;5.968;2022-10-31T00:49:38;32.70;30.79;35.84;;
67324;Laerm;57667;51.438;5.968;2022-10-31T00:49:49;32.18;29.70;33.79;;
67324;Laerm;57667;51.438;5.968;2022-10-31T00:49:59;32.52;30.36;34.41;;
67324;Laerm;57667;51.438;5.968;2022-10-31T00:50:09;32.37;30.66;34.17;;
67324;Laerm;57667;51.438;5.968;2022-10-31T00:50:20;32.46;30.25;34.03;;
67324;Laerm;57667;51.438;5.968;2022-10-31T00:50:30;32.26;30.64;33.78;;
67324;Laerm;57667;51.438;5.968;2022-10-31T00:50:40;33.61;29.92;36.08;;
67324;Laerm;57667;51.438;5.968;2022-10-31T00:50:51;35.94;32.64;39.21;;
67324;Laerm;57667;51.438;5.968;2022-10-31T00:51:01;36.55;32.66;40.15;;
67324;Laerm;57667;51.438;5.968;2022-10-31T00:51:12;35.15;32.47;38.65;;
67324;Laerm;57667;51.438;5.968;2022-10-31T00:51:22;35.30;31.25;38.54;;
67324;Laerm;57667;51.438;5.968;2022-10-31T00:51:32;37.77;31.90;40.92;;
67324;Laerm;57667;51.438;5.968;2022-10-31T00:51:43;34.07;31.05;37.79;;
67324;Laerm;57667;51.438;5.968;2022-10-31T00:51:53;33.54;30.58;36.82;;
67324;Laerm;57667;51.438;5.968;2022-10-31T00:52:03;35.12;31.99;37.59;;
67324;Laerm;57667;51.438;5.968;2022-10-31T00:52:14;38.27;31.65;43.38;;
67324;Laerm;57667;51.438;5.968;2022-10-31T00:52:24;39.25;32.60;44.09;;
67324;Laerm;57667;51.438;5.968;2022-10-31T00:52:34;35.72;31.42;39.71;;
67324;Laerm;57667;51.438;5.968;2022-10-31T00:52:44;33.56;30.24;37.60;;
67324;Laerm;57667;51.438;5.968;2022-10-31T00:52:55;33.95;31.48;36.61;;
67324;Laerm;57667;51.438;5.968;2022-10-31T00:53:05;32.98;30.70;35.16;;
67324;Laerm;57667;51.438;5.968;2022-10-31T00:53:15;32.70;30.76;35.07;;
67324;Laerm;57667;51.438;5.968;2022-10-31T00:53:26;33.83;30.27;37.11;;
67324;Laerm;57667;51.438;5.968;2022-10-31T00:53:36;35.39;31.13;38.23;;
67324;Laerm;57667;51.438;5.968;2022-10-31T00:53:46;35.27;30.79;38.10;;
67324;Laerm;57667;51.438;5.968;2022-10-31T00:53:57;34.60;31.68;36.87;;
67324;Laerm;57667;51.438;5.968;2022-10-31T00:54:07;34.24;31.35;36.35;;
67324;Laerm;57667;51.438;5.968;2022-10-31T00:54:18;33.68;31.02;35.85;;
67324;Laerm;57667;51.438;5.968;2022-10-31T00:54:28;33.90;30.91;36.19;;
67324;Laerm;57667;51.438;5.968;2022-10-31T00:54:40;33.27;31.13;35.55;;
67324;Laerm;57667;51.438;5.968;2022-10-31T00:54:51;32.87;31.01;34.82;;
67324;Laerm;57667;51.438;5.968;2022-10-31T00:55:01;32.90;31.11;35.05;;
67324;Laerm;57667;51.438;5.968;2022-10-31T00:55:11;33.57;31.41;35.72;;
67324;Laerm;57667;51.438;5.968;2022-10-31T00:55:22;34.09;31.40;36.46;;
67324;Laerm;57667;51.438;5.968;2022-10-31T00:55:32;34.01;30.44;36.60;;
67324;Laerm;57667;51.438;5.968;2022-10-31T00:55:43;34.58;31.75;37.22;;
67324;Laerm;57667;51.438;5.968;2022-10-31T00:55:53;35.55;32.43;37.92;;
67324;Laerm;57667;51.438;5.968;2022-10-31T00:56:03;35.52;32.09;38.29;;
67324;Laerm;57667;51.438;5.968;2022-10-31T00:56:14;35.72;31.95;38.66;;
67324;Laerm;57667;51.438;5.968;2022-10-31T00:56:24;35.18;31.76;38.29;;
67324;Laerm;57667;51.438;5.968;2022-10-31T00:56:35;35.69;30.87;39.14;;
67324;Laerm;57667;51.438;5.968;2022-10-31T00:56:45;35.97;30.44;39.03;;
67324;Laerm;57667;51.438;5.968;2022-10-31T00:56:55;36.40;31.73;39.23;;
67324;Laerm;57667;51.438;5.968;2022-10-31T00:57:06;36.49;32.72;39.22;;
67324;Laerm;57667;51.438;5.968;2022-10-31T00:57:16;35.48;31.41;38.60;;
67324;Laerm;57667;51.438;5.968;2022-10-31T00:57:26;34.73;31.03;37.38;;
67324;Laerm;57667;51.438;5.968;2022-10-31T00:57:37;34.54;32.03;36.48;;
67324;Laerm;57667;51.438;5.968;2022-10-31T00:57:47;33.84;31.57;35.83;;
67324;Laerm;57667;51.438;5.968;2022-10-31T00:57:57;35.32;32.42;43.32;;
67324;Laerm;57667;51.438;5.968;2022-10-31T00:58:10;34.35;31.25;37.09;;
67324;Laerm;57667;51.438;5.968;2022-10-31T00:58:21;33.75;31.32;36.03;;
67324;Laerm;57667;51.438;5.968;2022-10-31T00:58:31;34.86;31.28;37.86;;
67324;Laerm;57667;51.438;5.968;2022-10-31T00:58:41;34.98;31.19;38.46;;
67324;Laerm;57667;51.438;5.968;2022-10-31T00:58:52;35.43;32.63;38.07;;
67324;Laerm;57667;51.438;5.968;2022-10-31T00:59:02;34.12;31.20;36.48;;
67324;Laerm;57667;51.438;5.968;2022-10-31T00:59:12;32.18;30.59;35.16;;
67324;Laerm;57667;51.438;5.968;2022-10-31T00:59:23;31.75;29.84;33.48;;
67324;Laerm;57667;51.438;5.968;2022-10-31T00:59:33;32.23;30.42;44.00;;
67324;Laerm;57667;51.438;5.968;2022-10-31T00:59:43;32.06;30.55;33.77;;
67324;Laerm;57667;51.438;5.968;2022-10-31T00:59:53;32.34;30.14;34.03;;